createdAt,value
2022-11-18T00:01:22.669Z,3.28
2022-11-18T00:06:25.057Z,3.22
2022-11-18T00:11:42.679Z,4.40
2022-11-18T00:16:39.032Z,4.77
2022-11-18T00:21:35.340Z,2.90
2022-11-18T00:26:31.895Z,3.30
2022-11-18T00:31:28.596Z,2.42
2022-11-18T00:36:24.903Z,4.10
2022-11-18T00:41:21.331Z,3.20
2022-11-18T00:46:17.815Z,6.05
2022-11-18T00:51:18.462Z,5.00
2022-11-18T00:56:15.183Z,5.85
2022-11-18T01:01:11.647Z,5.78
2022-11-18T01:06:08.439Z,6.07
2022-11-18T01:11:27.892Z,7.10
2022-11-18T01:16:26.701Z,7.50
2022-11-18T01:21:24.528Z,7.53
2022-11-18T01:26:21.320Z,8.00
2022-11-18T01:31:19.342Z,8.75
2022-11-18T01:36:23.370Z,7.93
2022-11-18T01:41:21.829Z,8.45
2022-11-18T01:46:19.101Z,9.32
2022-11-18T01:51:18.025Z,9.80
2022-11-18T01:56:19.451Z,9.63
2022-11-18T02:01:15.919Z,8.93
2022-11-18T02:06:13.425Z,10.57
2022-11-18T02:11:34.068Z,9.15
2022-11-18T02:16:55.207Z,9.48
2022-11-18T02:22:13.182Z,9.90
2022-11-18T02:27:36.978Z,9.38
2022-11-18T02:32:41.194Z,10.20
2022-11-18T02:37:46.696Z,11.13
2022-11-18T02:42:50.134Z,12.55
2022-11-18T02:47:49.611Z,13.70
2022-11-18T02:52:48.076Z,12.90
2022-11-18T03:02:46.236Z,14.10
2022-11-18T03:07:45.308Z,13.75
2022-11-18T03:12:53.920Z,13.55
2022-11-18T03:23:04.769Z,14.02
2022-11-18T03:28:08.853Z,14.88
2022-11-18T03:33:14.146Z,15.30
2022-11-18T03:38:18.602Z,15.63
2022-11-18T03:43:22.206Z,14.88
2022-11-18T03:48:24.835Z,16.20
2022-11-18T03:53:25.825Z,14.80
2022-11-18T03:58:35.846Z,14.02
2022-11-18T04:03:32.204Z,14.00
2022-11-18T04:08:35.182Z,14.40
2022-11-18T04:13:35.616Z,12.75
2022-11-18T04:18:31.921Z,11.45
2022-11-18T04:23:28.285Z,13.10
2022-11-18T04:28:24.592Z,12.45
2022-11-18T04:33:21.056Z,10.73
2022-11-18T04:38:21.796Z,9.30
2022-11-18T04:43:18.513Z,10.13
2022-11-18T04:48:14.964Z,10.18
2022-11-18T04:53:11.313Z,13.35
2022-11-18T04:58:07.686Z,12.15
2022-11-18T05:03:03.989Z,13.73
2022-11-18T05:08:00.370Z,13.48
2022-11-18T05:12:56.746Z,14.60
2022-11-18T05:17:53.109Z,14.75
2022-11-18T05:22:49.617Z,15.43
2022-11-18T05:27:45.943Z,15.43
2022-11-18T05:32:42.284Z,17.50
2022-11-18T05:37:38.612Z,17.08
2022-11-18T05:43:10.370Z,16.48
2022-11-18T05:48:07.801Z,17.00
2022-11-18T05:53:05.095Z,16.33
2022-11-18T05:58:01.408Z,16.98
2022-11-18T06:02:59.350Z,15.77
2022-11-18T06:07:57.937Z,12.77
2022-11-18T06:12:59.656Z,16.05
2022-11-18T06:18:00.925Z,17.70
2022-11-18T06:22:58.254Z,16.45
2022-11-18T06:27:59.069Z,15.73
2022-11-18T06:32:55.444Z,16.50
2022-11-18T06:37:51.844Z,15.65
2022-11-18T06:43:06.812Z,16.33
2022-11-18T06:48:04.167Z,15.88
2022-11-18T06:53:01.137Z,16.17
2022-11-18T06:57:57.501Z,16.85
2022-11-18T07:02:53.857Z,15.52
2022-11-18T07:07:50.262Z,18.30
2022-11-18T07:12:46.613Z,16.35
2022-11-18T07:17:43.007Z,16.13
2022-11-18T07:22:39.374Z,17.20
2022-11-18T07:27:35.713Z,18.52
2022-11-18T07:32:32.975Z,17.73
2022-11-18T07:37:29.398Z,15.70
2022-11-18T07:42:25.964Z,16.48
2022-11-18T07:47:22.317Z,16.88
2022-11-18T07:52:18.649Z,17.58
2022-11-18T07:57:14.984Z,16.00
2022-11-18T08:02:12.468Z,15.50
2022-11-18T08:07:11.695Z,14.65
2022-11-18T08:12:08.139Z,15.45
2022-11-18T08:17:04.622Z,17.70
2022-11-18T08:22:00.977Z,14.65
2022-11-18T08:26:57.394Z,13.75
2022-11-18T08:31:54.610Z,14.65
2022-11-18T08:36:50.946Z,14.68
2022-11-18T08:41:47.617Z,13.68
2022-11-18T08:46:47.299Z,14.38
2022-11-18T08:51:43.678Z,13.20
2022-11-18T08:56:40.190Z,11.13
2022-11-18T09:01:37.842Z,12.07
2022-11-18T09:06:34.920Z,11.33
2022-11-18T09:11:31.315Z,11.15
2022-11-18T09:16:29.794Z,12.60
2022-11-18T09:21:27.086Z,11.07
2022-11-18T09:26:24.235Z,12.82
2022-11-18T09:31:20.818Z,10.93
2022-11-18T09:36:20.269Z,11.13
2022-11-18T09:41:40.049Z,11.07
2022-11-18T09:46:48.011Z,10.85
2022-11-18T09:51:49.919Z,10.88
2022-11-18T09:56:48.536Z,12.02
2022-11-18T10:01:45.556Z,11.07
2022-11-18T10:06:42.459Z,12.77
2022-11-18T10:12:05.327Z,12.27
2022-11-18T10:17:23.641Z,11.10
2022-11-18T10:22:43.348Z,12.15
2022-11-18T10:27:43.372Z,11.57
2022-11-18T10:32:58.632Z,10.52
2022-11-18T10:38:08.250Z,10.02
2022-11-18T10:43:05.411Z,11.25
2022-11-18T10:48:18.915Z,10.88
2022-11-18T10:53:36.913Z,9.68
2022-11-18T10:58:37.663Z,7.80
2022-11-18T11:03:37.819Z,7.05
2022-11-18T11:08:37.456Z,6.90
2022-11-18T11:13:39.482Z,6.50
2022-11-18T11:18:41.812Z,7.25
2022-11-18T11:23:38.318Z,7.47
2022-11-18T11:28:58.149Z,9.13
2022-11-18T11:34:11.766Z,7.43
2022-11-18T11:39:38.792Z,7.53
2022-11-18T11:45:13.254Z,9.10
2022-11-18T11:50:59.972Z,8.15
2022-11-18T11:56:06.725Z,7.68
2022-11-18T12:01:26.345Z,6.90
2022-11-18T12:06:22.797Z,7.88
2022-11-18T12:11:37.233Z,7.00
2022-11-18T12:16:56.933Z,7.88
2022-11-18T12:21:54.235Z,7.88
2022-11-18T12:26:51.611Z,7.90
2022-11-18T12:31:54.904Z,8.63
2022-11-18T12:36:52.967Z,7.47
2022-11-18T12:42:16.769Z,8.35
2022-11-18T12:47:15.073Z,8.30
2022-11-18T12:52:29.794Z,9.07
2022-11-18T12:57:32.947Z,8.50
2022-11-18T13:02:30.844Z,9.32
2022-11-18T13:07:46.163Z,9.90
2022-11-18T13:12:44.275Z,8.80
2022-11-18T13:17:51.729Z,8.73
2022-11-18T13:23:15.061Z,10.05
2022-11-18T13:28:26.441Z,10.98
2022-11-18T13:33:23.854Z,9.68
2022-11-18T13:38:28.396Z,8.70
2022-11-18T13:43:25.880Z,9.23
2022-11-18T13:48:22.443Z,8.32
2022-11-18T13:53:33.436Z,8.68
2022-11-18T14:04:01.352Z,8.07
2022-11-18T14:09:10.966Z,8.82
2022-11-18T14:14:10.247Z,9.13
2022-11-18T14:19:07.171Z,8.70
2022-11-18T14:24:04.427Z,8.50
2022-11-18T14:29:13.702Z,8.70
2022-11-18T14:34:26.719Z,8.77
2022-11-18T14:39:31.758Z,7.95
2022-11-18T14:44:28.565Z,7.57
2022-11-18T14:49:26.766Z,8.90
2022-11-18T14:54:27.630Z,7.10
2022-11-18T14:59:24.558Z,8.30
2022-11-18T15:04:21.949Z,9.27
2022-11-18T15:09:18.735Z,9.90
2022-11-18T15:14:15.200Z,9.77
2022-11-18T15:19:15.112Z,10.18
2022-11-18T15:24:11.608Z,8.13
2022-11-18T15:29:17.182Z,8.68
2022-11-18T15:34:13.998Z,8.07
2022-11-18T15:39:10.822Z,7.88
2022-11-18T15:44:07.191Z,6.47
2022-11-18T15:49:04.376Z,7.47
2022-11-18T15:54:00.840Z,6.72
2022-11-18T15:58:59.888Z,6.85
2022-11-18T16:03:56.783Z,5.22
2022-11-18T16:08:59.193Z,5.00
2022-11-18T16:14:18.262Z,4.45
2022-11-18T16:19:18.129Z,4.55
2022-11-18T16:24:18.322Z,4.50
2022-11-18T16:29:16.690Z,4.75
2022-11-18T16:34:14.867Z,4.65
2022-11-18T16:39:20.418Z,3.40
2022-11-18T16:44:17.605Z,5.20
2022-11-18T16:49:15.423Z,4.95
2022-11-18T16:54:19.875Z,4.80
2022-11-18T16:59:21.891Z,5.05
2022-11-18T17:04:19.786Z,5.75
2022-11-18T17:09:19.345Z,5.53
2022-11-18T17:14:16.190Z,5.60
2022-11-18T17:19:20.889Z,6.68
2022-11-18T17:24:21.960Z,6.80
2022-11-18T17:29:19.217Z,7.22
2022-11-18T17:34:16.333Z,6.18
2022-11-18T17:39:13.645Z,7.22
2022-11-18T17:44:13.113Z,6.32
2022-11-18T17:49:23.583Z,7.55
2022-11-18T17:54:21.486Z,8.50
2022-11-18T17:59:18.311Z,8.90
2022-11-18T18:04:15.367Z,9.52
2022-11-18T18:09:11.978Z,8.75
2022-11-18T18:14:12.453Z,9.43
2022-11-18T18:19:11.428Z,9.60
2022-11-18T18:24:08.523Z,9.98
2022-11-18T18:29:05.501Z,9.48
2022-11-18T18:34:02.229Z,9.77
2022-11-18T18:38:59.430Z,8.35
2022-11-18T18:43:56.719Z,9.63
2022-11-18T18:48:53.590Z,9.63
2022-11-18T18:53:50.023Z,10.25
2022-11-18T18:58:46.393Z,9.60
2022-11-18T19:03:43.415Z,10.82
2022-11-18T19:08:39.855Z,10.43
2022-11-18T19:13:36.197Z,9.95
2022-11-18T19:18:35.713Z,10.95
2022-11-18T19:23:32.045Z,11.55
2022-11-18T19:28:28.451Z,11.80
2022-11-18T19:33:24.788Z,11.45
2022-11-18T19:38:21.111Z,12.07
2022-11-18T19:43:17.506Z,11.63
2022-11-18T19:48:13.826Z,13.88
2022-11-18T19:53:30.186Z,14.10
2022-11-18T19:58:27.273Z,14.10
2022-11-18T20:03:23.610Z,13.65
2022-11-18T20:08:21.789Z,13.98
2022-11-18T20:13:18.792Z,15.02
2022-11-18T20:18:15.281Z,14.57
2022-11-18T20:23:11.653Z,14.35
2022-11-18T20:28:08.164Z,16.02
2022-11-18T20:33:04.651Z,13.80
2022-11-18T20:38:01.761Z,15.27
2022-11-18T20:43:13.169Z,15.50
2022-11-18T20:48:11.048Z,15.82
2022-11-18T20:53:07.464Z,12.32
2022-11-18T20:58:04.059Z,16.35
2022-11-18T21:03:00.434Z,17.55
2022-11-18T21:07:56.816Z,15.98
2022-11-18T21:13:11.738Z,17.63
2022-11-18T21:18:08.055Z,17.17
2022-11-18T21:23:04.662Z,17.10
2022-11-18T21:28:01.831Z,17.17
2022-11-18T21:32:58.226Z,18.13
2022-11-18T21:37:54.592Z,16.60
2022-11-18T21:42:54.147Z,17.20
2022-11-18T21:47:50.646Z,16.48
2022-11-18T21:52:47.019Z,16.00
2022-11-18T21:57:43.372Z,17.25
2022-11-18T22:02:39.722Z,18.30
2022-11-18T22:07:36.092Z,17.60
2022-11-18T22:12:32.490Z,17.13
2022-11-18T22:17:28.828Z,15.93
2022-11-18T22:22:25.195Z,16.35
2022-11-18T22:27:21.507Z,18.90
2022-11-18T22:32:19.246Z,19.23
2022-11-18T22:37:15.639Z,17.75
2022-11-18T22:42:30.962Z,19.52
2022-11-18T22:47:27.304Z,18.58
2022-11-18T22:52:23.652Z,19.02
2022-11-18T22:57:20.307Z,17.63
2022-11-18T23:02:16.634Z,19.55
2022-11-18T23:07:13.017Z,18.80
2022-11-18T23:12:28.247Z,19.23
2022-11-18T23:17:24.585Z,17.80
2022-11-18T23:22:20.943Z,18.73
2022-11-18T23:27:17.287Z,17.23
2022-11-18T23:32:13.627Z,17.77
2022-11-18T23:37:10.034Z,19.27
2022-11-18T23:42:06.393Z,19.65
2022-11-18T23:47:02.714Z,21.38
2022-11-18T23:51:59.043Z,20.55
2022-11-18T23:56:55.378Z,19.73
